Time;durP1;ratioP1;P1;durP2;ratioP2;P2;SDS_P1;SDS_P2;PMS_P1;PMS_P2;Temp;Humidity;BMP_temperature;BMP_pressure;BME280_temperature;BME280_humidity;BME280_pressure;Samples;Min_cycle;Max_cycle;Signal;HPM_P1;HPM_P2
2021/12/10 07:59:27;;;;;;;12.48;3.58;;;;;;;4.17;80.13;98934.50;5323040;27;20339;-72
2021/12/10 08:02:01;;;;;;;5.55;3.22;;;;;;;4.19;80.89;98937.75;5323482;28;20093;-72
2021/12/10 08:04:33;;;;;;;19.75;4.35;;;;;;;4.27;81.09;98943.44;5322889;28;20395;-69
2021/12/10 08:07:05;;;;;;;10.70;3.60;;;;;;;4.57;84.03;98949.59;5312939;28;20027;-70
2021/12/10 08:09:36;;;;;;;7.22;3.40;;;;;;;4.51;81.13;98942.56;5313437;28;20039;-71
2021/12/10 08:12:09;;;;;;;8.65;3.60;;;;;;;4.70;82.21;98945.31;5302568;28;20029;-67
2021/12/10 08:14:40;;;;;;;9.65;4.10;;;;;;;4.85;82.79;98938.78;5300895;28;20044;-70
2021/12/10 08:17:12;;;;;;;10.23;4.30;;;;;;;4.97;81.85;98945.44;5299916;28;20081;-67
2021/12/10 08:19:46;;;;;;;9.13;3.90;;;;;;;4.93;79.85;98947.13;5310448;28;20086;-69
2021/12/10 08:22:18;;;;;;;5.22;2.83;;;;;;;4.95;79.42;98949.59;5313376;28;20024;-70
2021/12/10 08:24:49;;;;;;;4.63;2.97;;;;;;;4.98;79.16;98947.06;5318508;28;20084;-72
2021/12/10 08:27:21;;;;;;;10.13;5.00;;;;;;;5.26;81.96;98954.59;5321193;28;20448;-77
2021/12/10 08:29:53;;;;;;;11.32;3.40;;;;;;;5.21;79.76;98947.25;5313372;28;20479;-78
2021/12/10 08:32:24;;;;;;;5.65;2.72;;;;;;;5.15;77.19;98945.72;5312356;28;20039;-75
2021/12/10 08:34:55;;;;;;;15.02;3.45;;;;;;;5.15;76.43;98941.03;5306978;28;20082;-74
2021/12/10 08:37:30;;;;;;;9.52;3.03;;;;;;;5.08;76.53;98946.09;5305948;28;20463;-73
2021/12/10 08:40:03;;;;;;;5.03;3.13;;;;;;;5.14;76.92;98947.66;5318024;28;20029;-72
2021/12/10 08:42:35;;;;;;;6.25;2.95;;;;;;;5.06;76.24;98940.06;5321283;28;20016;-72
2021/12/10 08:45:07;;;;;;;5.35;3.20;;;;;;;4.97;76.07;98952.88;5319339;28;20028;-71
2021/12/10 08:47:39;;;;;;;7.88;3.55;;;;;;;5.05;76.27;98954.94;5319506;28;20166;-69
2021/12/10 08:50:10;;;;;;;7.90;3.10;;;;;;;5.11;76.29;98948.22;5321375;28;20542;-71
2021/12/10 08:52:42;;;;;;;10.27;3.30;;;;;;;5.00;76.20;98944.84;5320746;28;20031;-70
2021/12/10 08:55:14;;;;;;;7.20;3.05;;;;;;;5.03;76.33;98943.41;5321120;28;20047;-69
2021/12/10 08:57:46;;;;;;;11.68;3.85;;;;;;;5.04;76.89;98952.47;5303882;28;20037;-69
2021/12/10 09:00:20;;;;;;;10.07;3.72;;;;;;;5.07;76.15;98949.16;5299303;28;20032;-69
2021/12/10 09:02:55;;;;;;;8.57;3.22;;;;;;;5.10;75.96;98945.78;5299531;28;20114;-70
2021/12/10 09:05:27;;;;;;;9.85;3.50;;;;;;;5.13;76.48;98940.50;5309352;28;20050;-70
2021/12/10 09:07:59;;;;;;;6.90;3.10;;;;;;;5.17;76.39;98941.56;5309853;28;20077;-69
2021/12/10 09:10:35;;;;;;;6.93;3.47;;;;;;;5.20;76.28;98954.69;5309125;28;20527;-70
2021/12/10 09:13:13;;;;;;;7.10;3.30;;;;;;;5.16;76.23;98950.09;5302114;28;20476;-69
2021/12/10 09:15:48;;;;;;;9.85;3.45;;;;;;;5.17;76.11;98963.53;5301982;28;20065;-70
2021/12/10 09:18:20;;;;;;;8.02;3.15;;;;;;;5.10;75.90;98959.53;5306587;28;20028;-69
2021/12/10 09:20:56;;;;;;;7.20;3.92;;;;;;;5.17;75.44;98963.53;5305900;28;20460;-69
2021/12/10 09:23:31;;;;;;;7.82;4.78;;;;;;;5.22;76.15;98960.69;5306324;28;20020;-69
2021/12/10 09:26:08;;;;;;;6.43;3.33;;;;;;;5.16;75.22;98961.88;5285388;28;20108;-70
2021/12/10 09:28:42;;;;;;;10.70;3.83;;;;;;;5.25;75.00;98966.72;5292704;28;20494;-70
2021/12/10 09:31:15;;;;;;;7.32;3.72;;;;;;;5.27;75.03;98961.75;5294607;28;20384;-68
2021/12/10 09:33:46;;;;;;;9.48;4.65;;;;;;;5.26;75.00;98962.84;5284933;28;20020;-68
2021/12/10 09:36:18;;;;;;;6.80;3.20;;;;;;;5.30;74.72;98963.88;5285094;28;20032;-69
2021/12/10 09:38:49;;;;;;;7.13;3.47;;;;;;;5.31;74.34;98962.75;5284372;28;20032;-71
2021/12/10 09:41:22;;;;;;;8.90;3.97;;;;;;;5.34;78.51;98971.25;5284113;28;20480;-68
2021/12/10 09:43:53;;;;;;;6.13;3.22;;;;;;;5.53;77.15;98965.69;5284747;28;20112;-71
2021/12/10 09:46:25;;;;;;;7.88;3.60;;;;;;;5.41;75.45;98970.84;5286384;28;20170;-69
2021/12/10 09:48:57;;;;;;;5.82;3.55;;;;;;;5.44;74.37;98964.72;5285300;28;20025;-71
2021/12/10 09:51:37;;;;;;;8.60;3.60;;;;;;;5.39;75.13;98965.66;5285060;28;20017;-68
2021/12/10 09:54:13;;;;;;;12.40;5.72;;;;;;;5.59;76.21;98969.97;5284322;28;20028;-68
2021/12/10 09:56:50;;;;;;;10.07;3.90;;;;;;;5.59;74.00;98971.91;5303803;28;20044;-69
2021/12/10 09:59:22;;;;;;;9.25;3.70;;;;;;;5.57;74.28;98963.97;5287527;28;20451;-68
2021/12/10 10:01:55;;;;;;;9.88;4.20;;;;;;;5.34;73.55;98967.66;5284455;28;20044;-68
2021/12/10 10:04:27;;;;;;;8.13;3.33;;;;;;;5.46;74.22;98973.50;5288886;28;20471;-69
2021/12/10 10:07:05;;;;;;;6.93;3.83;;;;;;;5.47;73.86;98972.41;5286793;28;20020;-68
2021/12/10 10:09:36;;;;;;;9.48;4.85;;;;;;;5.52;73.73;98972.31;5287756;28;20038;-69
2021/12/10 10:12:15;;;;;;;5.38;3.80;;;;;;;5.54;74.32;98975.53;5305026;28;20024;-71
2021/12/10 10:14:48;;;;;;;8.77;3.67;;;;;;;5.52;74.10;98977.81;5305712;28;20066;-69
2021/12/10 10:17:20;;;;;;;9.15;3.60;;;;;;;5.56;73.46;98984.31;5304585;28;20035;-71
2021/12/10 10:19:52;;;;;;;5.97;3.15;;;;;;;5.58;72.72;98979.34;5305872;28;20523;-71
2021/12/10 10:22:27;;;;;;;11.77;3.97;;;;;;;5.65;73.46;98976.22;5290514;28;20091;-72
2021/12/10 10:25:01;;;;;;;6.43;3.40;;;;;;;5.64;72.93;98983.63;5283472;28;20020;-72
2021/12/10 10:27:35;;;;;;;6.85;4.38;;;;;;;5.64;73.08;98977.31;5296829;28;20038;-72
2021/12/10 10:30:12;;;;;;;8.38;4.40;;;;;;;5.66;73.03;98980.56;5304963;28;20028;-72
2021/12/10 10:32:46;;;;;;;9.93;4.50;;;;;;;5.64;73.31;98985.56;5294201;28;20031;-71
2021/12/10 10:35:23;;;;;;;10.55;3.25;;;;;;;5.73;73.58;98981.00;5305504;28;20022;-70
2021/12/10 10:37:57;;;;;;;7.78;3.17;;;;;;;5.68;71.75;98983.84;5302178;28;20024;-70
2021/12/10 10:40:33;;;;;;;7.10;3.00;;;;;;;5.71;72.69;98985.19;5285822;28;20027;-71
2021/12/10 10:43:08;;;;;;;6.53;3.50;;;;;;;5.75;73.03;98983.44;5296296;28;20054;-70
2021/12/10 10:45:44;;;;;;;6.53;3.20;;;;;;;5.70;71.75;98973.38;5283042;28;20033;-76
2021/12/10 10:48:17;;;;;;;;;;;;;;;5.87;72.57;98981.00;5291414;28;20339;-76
2021/12/10 10:51:01;;;;;;;8.98;3.92;;;;;;;5.77;72.30;98986.69;5305039;28;19916;-76
2021/12/10 10:53:38;;;;;;;5.72;3.20;;;;;;;5.80;72.07;98980.59;5303504;28;20058;-76
2021/12/10 10:56:16;;;;;;;6.13;3.63;;;;;;;5.82;72.38;98990.16;5292911;28;20032;-76
2021/12/10 10:58:54;;;;;;;8.93;3.67;;;;;;;5.80;72.37;98988.84;5284618;28;20411;-76
2021/12/10 11:01:35;;;;;;;6.95;3.15;;;;;;;5.76;72.83;98991.41;5283458;28;20021;-76
2021/12/10 11:04:24;;;;;;;7.40;3.60;;;;;;;5.83;73.25;98989.06;5298081;28;20103;-76
2021/12/10 11:07:13;;;;;;;10.60;3.70;;;;;;;5.83;73.25;98991.81;5282513;28;20029;-76
2021/12/10 11:09:54;;;;;;;9.13;3.30;;;;;;;5.80;73.56;98988.84;5283024;28;20029;-75
2021/12/10 11:12:32;;;;;;;8.98;4.05;;;;;;;5.86;73.95;98990.41;5282859;28;20109;-76
2021/12/10 11:15:13;;;;;;;7.93;3.53;;;;;;;5.80;72.31;98992.44;5283978;28;20069;-77
2021/12/10 11:17:52;;;;;;;9.07;3.72;;;;;;;5.79;72.48;99001.78;5294967;28;20050;-77
2021/12/10 11:20:32;;;;;;;7.28;3.63;;;;;;;5.80;72.56;98997.09;5303415;28;20077;-78
2021/12/10 11:23:06;;;;;;;8.98;4.22;;;;;;;5.80;72.58;98997.09;5296805;28;20028;-77
2021/12/10 11:25:46;;;;;;;8.40;4.10;;;;;;;5.83;73.22;99004.75;5283346;28;20025;-77
2021/12/10 11:28:26;;;;;;;10.73;4.55;;;;;;;5.80;73.07;99000.69;5282558;28;20464;-81
2021/12/10 11:31:15;;;;;;;7.97;3.38;;;;;;;5.82;73.51;99005.88;5301220;28;20020;-81
2021/12/10 11:33:50;;;;;;;10.18;4.35;;;;;;;5.84;73.07;99000.88;5289883;28;20539;-78
2021/12/10 11:36:24;;;;;;;6.93;3.63;;;;;;;5.84;73.04;99009.94;5282777;28;20024;-78
2021/12/10 11:38:57;;;;;;;6.97;4.40;;;;;;;5.81;73.33;99004.25;5282760;28;20024;-76
2021/12/10 11:41:31;;;;;;;7.63;3.92;;;;;;;5.89;73.84;99009.03;5282180;28;20503;-76
2021/12/10 11:44:43;;;;;;;8.43;3.92;;;;;;;5.94;73.81;99008.97;5282915;28;20480;-76
2021/12/10 11:47:27;;;;;;;7.30;3.83;;;;;;;5.89;73.77;99015.34;5283447;28;20040;-76
2021/12/10 11:50:00;;;;;;;6.97;3.47;;;;;;;5.84;73.75;99012.69;5293657;28;20127;-74
2021/12/10 11:52:37;;;;;;;15.90;4.25;;;;;;;6.09;77.07;99011.44;5294583;28;20029;-82
2021/12/10 11:55:10;;;;;;;8.00;4.15;;;;;;;5.92;73.77;99013.94;5282334;28;20029;-78
2021/12/10 11:57:42;;;;;;;5.32;3.10;;;;;;;5.89;73.73;99018.09;5285240;28;20043;-76
2021/12/10 12:00:24;;;;;;;28.15;17.88;;;;;;;5.72;74.50;99015.13;5302546;28;20023;-75
2021/12/10 12:03:00;;;;;;;7.45;3.67;;;;;;;5.74;74.92;99020.31;5302382;28;20355;-77
2021/12/10 12:05:36;;;;;;;8.05;3.22;;;;;;;5.77;75.40;99025.22;5288811;28;20372;-77
2021/12/10 12:08:11;;;;;;;9.23;3.58;;;;;;;5.72;74.94;99023.38;5282824;28;20021;-76
2021/12/10 12:10:49;;;;;;;5.60;2.85;;;;;;;5.79;75.63;99031.22;5294317;28;20040;-76
2021/12/10 12:13:33;;;;;;;7.45;3.47;;;;;;;5.81;75.37;99034.50;5303684;28;20398;-76
2021/12/10 12:16:13;;;;;;;8.93;3.58;;;;;;;5.79;76.29;99039.50;5302997;28;20031;-75
2021/12/10 12:18:54;;;;;;;5.93;3.80;;;;;;;5.82;76.65;99038.88;5303807;28;20387;-76
2021/12/10 12:27:06;;;;;;;5.70;3.83;;;;;;;5.72;76.31;99036.31;5293005;28;20430;-75
2021/12/10 12:29:53;;;;;;;5.95;3.10;;;;;;;5.66;77.22;99039.16;5280935;28;20032;-77
2021/12/10 12:32:30;;;;;;;7.38;3.55;;;;;;;5.65;77.97;99048.53;5282306;28;20029;-81
2021/12/10 12:35:17;;;;;;;7.28;3.47;;;;;;;5.65;77.11;99050.47;5282713;28;20441;-75
2021/12/10 12:37:49;;;;;;;7.43;3.40;;;;;;;5.66;77.60;99049.34;5291055;28;20036;-74
2021/12/10 12:40:20;;;;;;;9.27;3.75;;;;;;;5.50;76.64;99053.47;5303054;28;20074;-79
2021/12/10 12:42:51;;;;;;;7.82;3.70;;;;;;;5.64;78.11;99057.88;5301735;28;20056;-77
2021/12/10 12:45:24;;;;;;;9.38;3.53;;;;;;;5.71;77.25;99062.19;5298788;28;20079;-80
2021/12/10 12:47:56;;;;;;;10.20;3.72;;;;;;;5.63;77.47;99070.00;5286565;28;20032;-76
2021/12/10 12:50:30;;;;;;;6.32;3.55;;;;;;;5.73;77.74;99071.78;5298305;28;20103;-74
2021/12/10 12:53:09;;;;;;;6.93;3.28;;;;;;;5.70;77.24;99074.28;5287043;28;20496;-75
2021/12/10 12:55:53;;;;;;;6.78;3.85;;;;;;;5.74;77.01;99081.66;5286700;28;20396;-73
2021/12/10 12:58:24;;;;;;;7.15;3.50;;;;;;;5.71;76.10;99081.44;5284966;28;20507;-74
2021/12/10 13:01:11;;;;;;;8.63;4.35;;;;;;;5.69;75.44;99080.91;5285699;28;20035;-73
2021/12/10 13:03:48;;;;;;;9.40;3.63;;;;;;;5.71;77.22;99086.94;5285348;28;20035;-73
2021/12/10 13:06:25;;;;;;;7.18;3.35;;;;;;;5.66;77.07;99087.84;5285515;28;20032;-70
2021/12/10 13:09:03;;;;;;;4.47;2.80;;;;;;;5.71;76.41;99090.50;5291486;28;20484;-70
2021/12/10 13:12:10;;;;;;;10.43;3.45;;;;;;;5.80;77.46;99098.88;5304183;28;20152;-71
2021/12/10 13:14:57;;;;;;;10.77;4.20;;;;;;;5.78;77.24;99098.38;5285615;28;20092;-71
2021/12/10 13:17:35;;;;;;;7.78;4.00;;;;;;;5.76;77.02;99106.94;5285469;28;20077;-70
2021/12/10 13:20:12;;;;;;;11.45;5.35;;;;;;;5.74;76.53;99109.16;5266462;28;20170;-70
2021/12/10 13:22:43;;;;;;;11.27;3.58;;;;;;;5.77;77.16;99111.31;5285695;28;20475;-70
2021/12/10 13:25:18;;;;;;;16.30;14.70;;;;;;;5.79;76.54;99116.50;5284767;28;20036;-74
2021/12/10 13:27:49;;;;;;;7.45;4.45;;;;;;;5.52;76.31;99118.03;5284326;28;20025;-74
2021/12/10 13:30:25;;;;;;;7.63;3.88;;;;;;;5.66;76.41;99118.09;5285654;28;20035;-73
2021/12/10 13:32:58;;;;;;;8.00;3.97;;;;;;;5.68;76.19;99126.06;5284313;28;20033;-73
2021/12/10 13:35:32;;;;;;;10.60;5.75;;;;;;;5.56;77.03;99127.31;5287945;28;20024;-74
2021/12/10 13:38:06;;;;;;;9.48;3.80;;;;;;;5.66;76.57;99131.84;5293456;28;20028;-72
2021/12/10 13:40:39;;;;;;;7.63;3.33;;;;;;;5.50;76.95;99136.75;5289185;28;20453;-73
2021/12/10 13:43:14;;;;;;;6.25;3.40;;;;;;;5.59;76.79;99134.16;5285021;28;20100;-73
2021/12/10 13:45:49;;;;;;;8.38;4.03;;;;;;;5.52;78.04;99134.53;5293150;28;20387;-74
2021/12/10 13:48:23;;;;;;;11.63;4.70;;;;;;;5.52;79.29;99134.53;5287782;28;20024;-74
2021/12/10 13:50:55;;;;;;;6.50;3.80;;;;;;;5.50;79.26;99135.94;5288742;28;20025;-74
2021/12/10 13:53:27;;;;;;;12.07;8.93;;;;;;;5.53;79.48;99140.84;5284721;28;20384;-74
2021/12/10 13:56:04;;;;;;;24.88;17.92;;;;;;;5.55;79.81;99146.88;5287434;28;20033;-73
2021/12/10 13:58:42;;;;;;;7.93;5.57;;;;;;;5.46;79.29;99157.72;5297522;28;20040;-72
2021/12/10 14:01:24;;;;;;;6.18;4.40;;;;;;;5.47;80.19;99164.88;5284188;28;20032;-74
2021/12/10 14:04:10;;;;;;;8.32;4.75;;;;;;;5.56;80.13;99163.06;5292463;28;20025;-73
2021/12/10 14:06:52;;;;;;;9.40;5.28;;;;;;;5.44;79.82;99166.28;5284587;28;20423;-73
2021/12/10 14:09:43;;;;;;;7.90;4.28;;;;;;;5.55;79.68;99166.94;5301891;28;20032;-73
2021/12/10 14:12:27;;;;;;;6.25;4.35;;;;;;;5.49;80.24;99172.78;5305012;28;20043;-74
2021/12/10 14:14:59;;;;;;;8.82;5.03;;;;;;;5.50;80.80;99174.44;5305500;28;20476;-76
2021/12/10 14:17:33;;;;;;;8.88;5.65;;;;;;;5.60;80.25;99179.81;5301202;28;20032;-75
2021/12/10 14:20:17;;;;;;;8.73;4.68;;;;;;;5.53;79.83;99180.16;5292247;28;20020;-75
2021/12/10 14:23:13;;;;;;;9.35;4.82;;;;;;;5.62;78.73;99185.81;5299897;28;20045;-76
2021/12/10 14:25:52;;;;;;;7.63;4.80;;;;;;;5.54;78.70;99197.47;5292773;28;20051;-75
2021/12/10 14:28:48;;;;;;;8.43;6.15;;;;;;;5.65;79.82;99201.72;5295385;28;20029;-76
2021/12/10 14:31:33;;;;;;;10.10;5.28;;;;;;;5.62;79.90;99214.16;5279006;28;20487;-75
2021/12/10 14:34:13;;;;;;;8.75;6.18;;;;;;;5.58;79.77;99210.34;5299711;28;20027;-74
2021/12/10 14:36:57;;;;;;;6.57;4.93;;;;;;;5.56;79.20;99212.56;5296252;28;20032;-74
2021/12/10 14:39:29;;;;;;;7.05;5.13;;;;;;;5.57;79.59;99214.22;5293315;28;20044;-74
2021/12/10 14:42:09;;;;;;;9.52;5.43;;;;;;;5.53;79.40;99217.84;5283366;28;20032;-74
2021/12/10 14:44:41;;;;;;;7.05;4.90;;;;;;;5.53;79.52;99223.34;5283287;28;20028;-74
2021/12/10 14:47:15;;;;;;;10.38;6.10;;;;;;;5.54;79.12;99225.78;5283326;28;20274;-76
2021/12/10 14:50:03;;;;;;;8.65;6.35;;;;;;;5.60;79.12;99234.81;5299388;28;20028;-75
2021/12/10 14:52:40;;;;;;;8.90;6.28;;;;;;;5.48;79.58;99237.97;5303882;28;20024;-75
2021/12/10 14:55:23;;;;;;;8.95;7.50;;;;;;;5.49;79.78;99238.78;5293409;28;20073;-77
2021/12/10 14:57:58;;;;;;;9.63;6.10;;;;;;;5.49;80.34;99241.53;5302720;28;20040;-77
2021/12/10 15:00:35;;;;;;;13.52;9.07;;;;;;;5.54;80.37;99253.28;5297086;28;20048;-76
2021/12/10 15:03:47;;;;;;;8.93;6.03;;;;;;;5.45;81.15;99263.31;5291793;28;20028;-72
2021/12/10 15:06:20;;;;;;;7.10;5.20;;;;;;;5.48;80.03;99272.91;5273397;28;20040;-76
2021/12/10 15:09:06;;;;;;;7.25;6.15;;;;;;;5.37;80.75;99281.28;5282829;28;20020;-74
2021/12/10 15:11:47;;;;;;;9.35;4.80;;;;;;;5.43;82.07;99285.59;5283154;28;20025;-78
2021/12/10 15:14:26;;;;;;;8.75;5.70;;;;;;;5.34;82.42;99283.78;5289196;28;20059;-79
2021/12/10 15:17:09;;;;;;;11.77;6.53;;;;;;;5.34;82.16;99281.03;5297157;28;20376;-78
2021/12/10 15:19:45;;;;;;;19.92;11.68;;;;;;;5.28;82.31;99288.53;5286856;28;20063;-78
2021/12/10 15:22:29;;;;;;;16.80;6.53;;;;;;;5.11;82.31;99299.97;5287915;28;20020;-78
2021/12/10 15:25:01;;;;;;;35.63;25.02;;;;;;;5.18;82.82;99308.69;5304282;28;20024;-78
2021/12/10 15:27:36;;;;;;;19.00;13.50;;;;;;;5.15;82.54;99314.78;5302512;28;20107;-81
2021/12/10 15:30:16;;;;;;;10.05;6.25;;;;;;;5.21;83.08;99316.34;5284107;28;20029;-78
2021/12/10 15:32:53;;;;;;;14.38;10.82;;;;;;;5.13;83.48;99325.25;5281957;28;20043;-80
2021/12/10 15:35:27;;;;;;;11.30;8.63;;;;;;;5.20;84.46;99336.72;5283422;28;20361;-79
2021/12/10 15:38:05;;;;;;;15.27;10.43;;;;;;;5.11;84.39;99338.44;5287856;28;20055;-78
2021/12/10 15:40:55;;;;;;;11.23;6.47;;;;;;;5.12;84.32;99339.28;5283004;28;20070;-78
2021/12/10 15:43:37;;;;;;;9.07;5.25;;;;;;;5.30;84.61;99354.22;5286409;28;20028;-78
2021/12/10 15:46:23;;;;;;;10.57;6.75;;;;;;;5.60;88.97;99356.63;5284491;28;20121;-79
2021/12/10 15:49:04;;;;;;;11.95;6.97;;;;;;;5.53;85.45;99366.34;5303954;28;20035;-81
2021/12/10 15:51:40;;;;;;;7.53;5.78;;;;;;;5.50;85.13;99370.50;5300630;28;20053;-81
2021/12/10 15:54:17;;;;;;;7.95;5.97;;;;;;;5.81;86.08;99378.41;5304017;28;20028;-81
2021/12/10 15:56:54;;;;;;;12.27;7.10;;;;;;;5.46;83.98;99385.94;5293745;28;20115;-82
2021/12/10 15:59:31;;;;;;;15.15;11.65;;;;;;;5.56;85.34;99391.31;5299730;28;20040;-80
2021/12/10 16:02:06;;;;;;;11.70;8.30;;;;;;;5.64;83.70;99400.84;5297866;28;20464;-85
2021/12/10 16:04:41;;;;;;;11.43;6.30;;;;;;;5.67;85.90;99405.78;5306953;28;20576;-88
2021/12/10 16:07:18;;;;;;;11.00;7.20;;;;;;;5.78;85.57;99412.81;5291805;28;20377;-78
2021/12/10 16:10:09;;;;;;;12.27;7.80;;;;;;;5.57;85.06;99414.97;5299874;28;20173;-75
2021/12/10 16:12:42;;;;;;;12.13;7.28;;;;;;;5.91;85.48;99422.28;5299530;28;20043;-77
2021/12/10 16:15:23;;;;;;;9.50;6.40;;;;;;;5.49;83.58;99437.59;5278964;28;20029;-78
2021/12/10 16:17:56;;;;;;;10.15;6.13;;;;;;;5.46;83.06;99432.69;5280536;28;20499;-75
2021/12/10 16:20:41;;;;;;;30.33;20.63;;;;;;;5.39;82.85;99446.78;5283171;28;20070;-74
2021/12/10 16:23:18;;;;;;;11.70;8.88;;;;;;;5.23;82.53;99446.06;5283217;28;20487;-72
2021/12/10 16:25:57;;;;;;;9.13;6.65;;;;;;;5.16;83.70;99451.06;5284666;28;20043;-73
2021/12/10 16:28:29;;;;;;;13.52;7.13;;;;;;;5.15;83.51;99463.19;5284715;28;20030;-73
2021/12/10 16:31:11;;;;;;;7.63;6.32;;;;;;;5.09;83.63;99469.84;5285248;28;20028;-73
2021/12/10 16:33:47;;;;;;;7.32;6.53;;;;;;;5.08;84.04;99470.13;5284264;28;20214;-71
2021/12/10 16:36:18;;;;;;;9.07;7.15;;;;;;;5.04;84.19;99480.88;5296540;28;20028;-76
2021/12/10 16:38:55;;;;;;;10.52;7.15;;;;;;;4.99;83.73;99487.22;5306966;28;20082;-75
2021/12/10 16:41:34;;;;;;;9.23;6.30;;;;;;;5.05;83.44;99481.69;5306324;28;20570;-75
2021/12/10 16:44:13;;;;;;;12.55;8.13;;;;;;;5.08;83.93;99489.34;5306256;28;20035;-76
2021/12/10 16:46:48;;;;;;;11.80;9.65;;;;;;;5.05;83.46;99489.94;5307123;28;20034;-76
2021/12/10 16:49:21;;;;;;;;;;;;;;;5.25;83.75;99497.22;5306788;28;20360;-76
2021/12/10 16:52:07;;;;;;;13.68;10.00;;;;;;;5.12;83.63;99499.50;5292883;28;19912;-77
2021/12/10 16:54:41;;;;;;;15.57;8.50;;;;;;;5.02;83.83;99513.31;5306253;28;20032;-76
2021/12/10 16:57:20;;;;;;;13.20;8.20;;;;;;;4.97;83.56;99524.34;5304603;28;20909;-76
2021/12/10 16:59:57;;;;;;;11.60;9.10;;;;;;;4.87;83.05;99529.91;5307068;28;20103;-75
2021/12/10 17:02:32;;;;;;;11.05;8.48;;;;;;;4.74;83.76;99526.66;5288224;28;20475;-77
2021/12/10 17:05:13;;;;;;;11.27;9.07;;;;;;;4.89;83.71;99538.69;5285089;28;20036;-74
2021/12/10 17:07:49;;;;;;;10.65;9.55;;;;;;;4.90;83.88;99543.06;5286049;28;20074;-75
2021/12/10 17:10:29;;;;;;;10.32;8.98;;;;;;;4.88;83.52;99542.50;5297894;28;20118;-75
2021/12/10 17:13:10;;;;;;;12.43;9.00;;;;;;;4.90;83.80;99552.13;5284739;28;20020;-78
2021/12/10 17:15:42;;;;;;;9.98;8.98;;;;;;;4.80;83.20;99558.47;5285311;28;20048;-75
2021/12/10 17:18:17;;;;;;;14.63;8.30;;;;;;;4.67;83.23;99564.59;5284103;28;20132;-74
2021/12/10 17:20:56;;;;;;;;;;;;;;;4.97;82.52;99573.78;5285571;28;20031;-75
2021/12/10 17:23:28;;;;;;;11.77;9.27;;;;;;;4.69;83.02;99576.13;5306685;28;19927;-74
2021/12/10 17:26:27;;;;;;;10.27;8.98;;;;;;;4.80;83.78;99576.91;5296938;28;20032;-74
2021/12/10 17:29:08;;;;;;;13.32;8.52;;;;;;;4.66;83.63;99573.13;5302178;28;20499;-76
